createdAt,value
2017-10-21T00:01:38.696Z,14.40
2017-10-21T00:04:06.339Z,14.30
2017-10-21T00:06:33.888Z,14.40
2017-10-21T00:09:01.331Z,14.50
2017-10-21T00:11:28.840Z,14.60
2017-10-21T00:13:57.044Z,14.50
2017-10-21T00:16:24.519Z,14.40
2017-10-21T00:18:51.979Z,14.50
2017-10-21T00:21:19.439Z,14.50
2017-10-21T00:23:47.868Z,14.50
2017-10-21T00:26:16.226Z,14.50
2017-10-21T00:28:44.447Z,14.50
2017-10-21T00:31:11.871Z,14.40
2017-10-21T00:33:39.318Z,14.40
2017-10-21T00:36:07.511Z,14.50
2017-10-21T00:38:34.954Z,14.40
2017-10-21T00:41:02.396Z,14.50
2017-10-21T00:43:30.591Z,14.60
2017-10-21T00:45:58.043Z,14.50
2017-10-21T00:48:26.267Z,14.60
2017-10-21T00:50:53.810Z,14.50
2017-10-21T00:53:21.246Z,14.60
2017-10-21T00:55:48.718Z,14.60
2017-10-21T00:58:16.163Z,14.60
2017-10-21T01:00:43.626Z,14.70
2017-10-21T01:03:11.070Z,14.70
2017-10-21T01:05:38.542Z,14.70
2017-10-21T01:08:05.998Z,14.50
2017-10-21T01:10:33.439Z,14.40
2017-10-21T01:13:00.879Z,14.40
2017-10-21T01:15:28.323Z,14.40
2017-10-21T01:17:55.824Z,14.50
2017-10-21T01:20:23.274Z,14.50
2017-10-21T01:22:50.737Z,14.50
2017-10-21T01:25:18.167Z,14.50
2017-10-21T01:27:45.646Z,14.40
2017-10-21T01:30:13.203Z,14.30
2017-10-21T01:32:40.652Z,14.40
2017-10-21T01:35:08.099Z,14.50
2017-10-21T01:37:35.540Z,14.40
2017-10-21T01:40:02.986Z,14.50
2017-10-21T01:42:30.480Z,14.50
2017-10-21T01:44:57.923Z,14.40
2017-10-21T01:47:25.391Z,14.40
2017-10-21T01:49:52.847Z,14.40
2017-10-21T01:52:20.283Z,14.50
2017-10-21T01:54:47.741Z,14.50
2017-10-21T01:57:15.226Z,14.40
2017-10-21T01:59:42.676Z,14.40
2017-10-21T02:02:10.124Z,14.30
2017-10-21T02:04:37.704Z,14.40
2017-10-21T02:07:05.164Z,14.30
2017-10-21T02:09:32.639Z,14.30
2017-10-21T02:12:00.870Z,14.20
2017-10-21T02:14:28.426Z,14.20
2017-10-21T02:16:55.865Z,14.20
2017-10-21T02:19:23.343Z,14.20
2017-10-21T02:21:50.894Z,14.10
2017-10-21T02:24:18.339Z,14.00
2017-10-21T02:26:45.812Z,14.00
2017-10-21T02:29:13.264Z,14.00
2017-10-21T02:31:40.715Z,13.90
2017-10-21T02:34:08.182Z,13.90
2017-10-21T02:36:35.606Z,14.00
2017-10-21T02:39:03.036Z,14.10
2017-10-21T02:41:30.488Z,14.20
2017-10-21T02:43:58.709Z,14.20
2017-10-21T02:46:26.147Z,14.20
2017-10-21T02:48:53.580Z,14.20
2017-10-21T02:51:21.029Z,14.20
2017-10-21T02:53:49.230Z,14.10
2017-10-21T02:56:17.467Z,14.10
2017-10-21T02:58:45.662Z,14.10
2017-10-21T03:01:13.099Z,14.00
2017-10-21T03:03:40.583Z,14.00
2017-10-21T03:06:08.017Z,14.00
2017-10-21T03:08:35.464Z,14.00
2017-10-21T03:11:03.689Z,14.00
2017-10-21T03:13:31.107Z,13.90
2017-10-21T03:15:58.594Z,13.90
2017-10-21T03:18:26.036Z,13.90
2017-10-21T03:20:53.470Z,14.00
2017-10-21T03:23:20.942Z,14.00
2017-10-21T03:25:48.393Z,14.00
2017-10-21T03:28:15.814Z,13.90
2017-10-21T03:30:44.015Z,13.90
2017-10-21T03:33:11.442Z,13.90
2017-10-21T03:35:39.654Z,13.80
2017-10-21T03:38:07.131Z,13.70
2017-10-21T03:40:34.586Z,13.80
2017-10-21T03:43:02.178Z,14.00
2017-10-21T03:45:29.706Z,13.90
2017-10-21T03:47:57.259Z,13.90
2017-10-21T03:50:24.702Z,14.00
2017-10-21T03:52:52.130Z,14.00
2017-10-21T03:55:19.621Z,14.00
2017-10-21T03:57:47.076Z,14.00
2017-10-21T04:00:14.742Z,13.90
2017-10-21T04:02:42.303Z,14.00
2017-10-21T04:05:09.762Z,14.00
2017-10-21T04:07:37.318Z,14.00
2017-10-21T04:10:04.767Z,13.90
2017-10-21T04:12:32.203Z,14.00
2017-10-21T04:14:59.643Z,14.00
2017-10-21T04:17:27.098Z,14.00
2017-10-21T04:19:54.531Z,14.00
2017-10-21T04:22:22.731Z,13.90
2017-10-21T04:24:50.931Z,13.80
2017-10-21T04:27:18.383Z,13.90
2017-10-21T04:29:45.842Z,13.80
2017-10-21T04:32:13.748Z,13.50
2017-10-21T04:34:41.955Z,13.30
2017-10-21T04:37:09.406Z,13.30
2017-10-21T04:39:36.847Z,13.30
2017-10-21T04:42:05.046Z,13.10
2017-10-21T04:44:32.524Z,13.00
2017-10-21T04:46:59.959Z,13.00
2017-10-21T04:49:27.404Z,13.00
2017-10-21T04:51:54.851Z,13.00
2017-10-21T04:54:22.336Z,12.90
2017-10-21T04:56:49.806Z,13.00
2017-10-21T04:59:17.254Z,13.60
2017-10-21T05:01:44.690Z,13.50
2017-10-21T05:04:12.144Z,13.70
2017-10-21T05:06:39.623Z,13.60
2017-10-21T05:09:07.078Z,13.50
2017-10-21T05:11:35.035Z,13.40
2017-10-21T05:14:02.486Z,13.10
2017-10-21T05:16:29.955Z,13.10
2017-10-21T05:18:57.434Z,13.10
2017-10-21T05:21:24.871Z,13.30
2017-10-21T05:23:52.318Z,13.40
2017-10-21T05:26:19.762Z,13.50
2017-10-21T05:28:47.246Z,13.60
2017-10-21T05:31:15.202Z,13.60
2017-10-21T05:33:42.660Z,13.80
2017-10-21T05:36:10.214Z,14.00
2017-10-21T05:38:37.668Z,13.90
2017-10-21T05:41:05.139Z,13.90
2017-10-21T05:43:32.595Z,13.80
2017-10-21T05:46:00.055Z,13.70
2017-10-21T05:48:27.500Z,13.70
2017-10-21T05:50:55.056Z,13.70
2017-10-21T05:53:22.622Z,13.80
2017-10-21T05:55:50.078Z,13.80
2017-10-21T05:58:17.536Z,13.80
2017-10-21T06:00:44.996Z,13.80
2017-10-21T06:03:12.438Z,13.80
2017-10-21T06:05:39.982Z,13.80
2017-10-21T06:08:07.424Z,13.80
2017-10-21T06:10:34.861Z,13.80
2017-10-21T06:13:02.307Z,13.80
2017-10-21T06:15:29.754Z,13.80
2017-10-21T06:17:57.970Z,13.80
2017-10-21T06:20:25.449Z,13.80
2017-10-21T06:22:53.159Z,13.80
2017-10-21T06:25:20.597Z,13.80
2017-10-21T06:27:48.826Z,13.90
2017-10-21T06:30:16.266Z,13.90
2017-10-21T06:32:43.723Z,13.90
2017-10-21T06:35:11.171Z,13.80
2017-10-21T06:37:38.615Z,13.90
2017-10-21T06:40:06.095Z,14.00
2017-10-21T06:42:33.561Z,13.90
2017-10-21T06:45:01.002Z,13.80
2017-10-21T06:47:28.477Z,14.00
2017-10-21T06:50:05.864Z,13.80
2017-10-21T06:52:33.319Z,13.80
2017-10-21T06:55:01.378Z,13.90
2017-10-21T06:57:28.955Z,14.00
2017-10-21T06:59:56.399Z,13.90
2017-10-21T07:02:23.964Z,14.10
2017-10-21T07:04:51.421Z,14.00
2017-10-21T07:07:18.979Z,14.10
2017-10-21T07:09:47.167Z,14.10
2017-10-21T07:12:14.794Z,14.20
2017-10-21T07:14:42.208Z,14.30
2017-10-21T07:17:09.659Z,14.20
2017-10-21T07:19:37.878Z,14.30
2017-10-21T07:22:05.323Z,14.20
2017-10-21T07:24:34.205Z,14.30
2017-10-21T07:27:01.951Z,14.40
2017-10-21T07:29:29.386Z,14.40
2017-10-21T07:31:57.625Z,14.40
2017-10-21T07:34:25.395Z,14.40
2017-10-21T07:36:54.344Z,14.30
2017-10-21T07:39:21.774Z,14.30
2017-10-21T07:41:50.023Z,14.40
2017-10-21T07:44:17.467Z,14.30
2017-10-21T07:46:44.907Z,14.40
2017-10-21T07:49:12.462Z,14.40
2017-10-21T07:51:39.913Z,14.40
2017-10-21T07:54:07.347Z,14.40
2017-10-21T07:56:34.875Z,14.50
2017-10-21T07:59:03.088Z,14.40
2017-10-21T08:01:31.304Z,14.40
2017-10-21T08:03:59.707Z,14.60
2017-10-21T08:06:27.976Z,14.90
2017-10-21T08:08:56.174Z,15.00
2017-10-21T08:11:23.717Z,14.90
2017-10-21T08:13:52.134Z,14.90
2017-10-21T08:16:19.575Z,14.90
2017-10-21T08:18:47.022Z,15.00
2017-10-21T08:21:14.468Z,15.00
2017-10-21T08:23:41.963Z,14.80
2017-10-21T08:26:09.406Z,14.70
2017-10-21T08:28:36.861Z,14.50
2017-10-21T08:31:04.310Z,14.50
2017-10-21T08:33:31.763Z,14.40
2017-10-21T08:35:59.220Z,14.40
2017-10-21T08:38:26.679Z,14.40
2017-10-21T08:40:54.136Z,14.50
2017-10-21T08:43:21.591Z,14.70
2017-10-21T08:45:49.047Z,14.70
2017-10-21T08:48:16.680Z,14.80
2017-10-21T08:50:44.450Z,14.70
2017-10-21T08:53:12.599Z,14.60
2017-10-21T08:55:40.835Z,14.60
2017-10-21T08:58:08.305Z,14.50
2017-10-21T09:00:35.798Z,14.50
2017-10-21T09:03:03.435Z,14.50
2017-10-21T09:05:30.871Z,14.60
2017-10-21T09:07:58.323Z,14.60
2017-10-21T09:10:25.785Z,14.70
2017-10-21T09:12:53.231Z,14.70
2017-10-21T09:15:20.674Z,14.80
2017-10-21T09:17:48.162Z,14.90
2017-10-21T09:20:15.669Z,15.00
2017-10-21T09:22:43.295Z,15.10
2017-10-21T09:25:11.663Z,15.50
2017-10-21T09:27:39.687Z,15.50
2017-10-21T09:30:07.474Z,15.70
2017-10-21T09:32:35.058Z,15.70
2017-10-21T09:35:03.298Z,15.90
2017-10-21T09:37:31.003Z,15.80
2017-10-21T09:39:59.226Z,17.00
2017-10-21T09:42:26.795Z,17.00
2017-10-21T09:44:55.105Z,17.90
2017-10-21T09:47:22.771Z,18.00
2017-10-21T09:49:50.974Z,18.00
2017-10-21T09:52:18.461Z,17.90
2017-10-21T09:54:46.018Z,17.90
2017-10-21T09:57:14.237Z,18.20
2017-10-21T09:59:41.699Z,18.60
2017-10-21T10:02:19.787Z,18.20
2017-10-21T10:04:48.011Z,18.00
2017-10-21T10:07:15.571Z,17.90
2017-10-21T10:09:54.270Z,17.90
2017-10-21T10:12:21.842Z,17.90
2017-10-21T10:14:49.715Z,17.90
2017-10-21T10:17:17.315Z,17.90
2017-10-21T10:19:45.537Z,18.30
2017-10-21T10:22:13.006Z,18.30
2017-10-21T10:24:40.490Z,18.70
2017-10-21T10:27:07.938Z,19.50
2017-10-21T10:29:35.378Z,20.00
2017-10-21T10:32:03.007Z,20.20
2017-10-21T10:34:30.429Z,19.90
2017-10-21T10:36:58.663Z,19.40
2017-10-21T10:39:26.219Z,19.30
2017-10-21T10:41:53.675Z,19.40
2017-10-21T10:44:21.159Z,19.20
2017-10-21T10:46:48.605Z,19.10
2017-10-21T10:49:16.063Z,18.90
2017-10-21T10:51:43.555Z,18.80
2017-10-21T10:54:10.998Z,18.80
2017-10-21T10:56:38.444Z,18.70
2017-10-21T10:59:06.692Z,18.70
2017-10-21T11:01:34.235Z,18.60
2017-10-21T11:04:01.783Z,18.90
2017-10-21T11:06:31.192Z,18.90
2017-10-21T11:08:58.746Z,19.10
2017-10-21T11:11:26.198Z,19.20
2017-10-21T11:13:54.664Z,19.30
2017-10-21T11:16:22.095Z,19.50
2017-10-21T11:18:49.542Z,19.80
2017-10-21T11:21:16.991Z,19.80
2017-10-21T11:23:45.200Z,20.40
2017-10-21T11:26:12.655Z,20.30
2017-10-21T11:28:40.222Z,20.50
2017-10-21T11:31:07.671Z,20.80
2017-10-21T11:33:35.430Z,20.70
2017-10-21T11:36:02.876Z,20.80
2017-10-21T11:38:30.355Z,21.20
2017-10-21T11:40:57.811Z,21.50
2017-10-21T11:43:25.622Z,21.60
2017-10-21T11:45:53.854Z,21.60
2017-10-21T11:48:21.295Z,21.50
2017-10-21T11:50:48.758Z,21.50
2017-10-21T11:53:16.212Z,21.50
2017-10-21T11:55:43.667Z,21.40
2017-10-21T11:58:11.132Z,21.20
2017-10-21T12:00:38.574Z,21.10
2017-10-21T12:03:06.061Z,21.00
2017-10-21T12:05:33.522Z,20.90
2017-10-21T12:08:00.969Z,20.90
2017-10-21T12:10:28.411Z,20.80
2017-10-21T12:12:56.065Z,20.80
2017-10-21T12:15:23.548Z,20.80
2017-10-21T12:17:50.990Z,20.90
2017-10-21T12:20:18.437Z,21.10
2017-10-21T12:22:45.864Z,21.10
2017-10-21T12:25:13.380Z,20.90
2017-10-21T12:27:41.593Z,21.10
2017-10-21T12:30:09.039Z,21.10
2017-10-21T12:32:36.498Z,21.10
2017-10-21T12:35:04.231Z,20.90
2017-10-21T12:37:32.458Z,20.80
2017-10-21T12:39:59.900Z,20.70
2017-10-21T12:42:27.509Z,20.80
2017-10-21T12:44:55.739Z,21.20
2017-10-21T12:47:23.259Z,21.10
2017-10-21T12:49:51.447Z,21.50
2017-10-21T12:52:18.935Z,21.40
2017-10-21T12:54:46.367Z,21.50
2017-10-21T12:57:13.827Z,21.50
2017-10-21T12:59:41.299Z,21.50
2017-10-21T13:02:08.754Z,21.70
2017-10-21T13:04:36.195Z,21.80
2017-10-21T13:07:03.674Z,21.60
2017-10-21T13:09:31.127Z,21.50
2017-10-21T13:11:58.575Z,21.60
2017-10-21T13:14:26.023Z,21.50
2017-10-21T13:16:53.467Z,21.60
2017-10-21T13:19:21.029Z,21.50
2017-10-21T13:21:48.483Z,21.40
2017-10-21T13:24:15.917Z,21.20
2017-10-21T13:26:43.346Z,20.90
2017-10-21T13:29:11.616Z,20.70
2017-10-21T13:31:39.811Z,20.60
2017-10-21T13:34:08.282Z,20.60
2017-10-21T13:36:36.512Z,20.50
2017-10-21T13:39:03.982Z,20.40
2017-10-21T13:41:31.534Z,20.50
2017-10-21T13:43:59.000Z,20.50
2017-10-21T13:46:26.448Z,20.40
2017-10-21T13:48:53.899Z,20.30
2017-10-21T13:51:21.358Z,20.20
2017-10-21T13:53:48.807Z,20.20
2017-10-21T13:56:16.230Z,20.30
2017-10-21T13:58:47.046Z,20.20
2017-10-21T14:01:14.716Z,20.10
2017-10-21T14:03:42.208Z,20.20
2017-10-21T14:06:09.658Z,20.30
2017-10-21T14:08:37.104Z,20.30
2017-10-21T14:11:04.566Z,20.30
2017-10-21T14:13:31.987Z,20.20
2017-10-21T14:15:59.427Z,20.20
2017-10-21T14:18:26.875Z,20.10
2017-10-21T14:20:55.094Z,19.90
2017-10-21T14:23:22.551Z,19.90
2017-10-21T14:25:50.097Z,19.90
2017-10-21T14:28:17.526Z,19.70
2017-10-21T14:30:44.987Z,19.60
2017-10-21T14:33:13.181Z,19.70
2017-10-21T14:35:40.615Z,19.60
2017-10-21T14:38:08.686Z,19.50
2017-10-21T14:40:36.960Z,19.60
2017-10-21T14:43:05.158Z,19.60
2017-10-21T14:45:32.590Z,19.50
2017-10-21T14:48:00.066Z,19.50
2017-10-21T14:50:27.487Z,19.50
2017-10-21T14:52:55.734Z,19.40
2017-10-21T14:55:23.158Z,19.40
2017-10-21T14:57:50.606Z,19.40
2017-10-21T15:00:18.161Z,19.40
2017-10-21T15:02:45.583Z,19.40
2017-10-21T15:05:13.791Z,19.40
2017-10-21T15:07:41.232Z,19.30
2017-10-21T15:10:08.715Z,19.50
2017-10-21T15:12:36.163Z,19.40
2017-10-21T15:15:03.599Z,19.40
2017-10-21T15:17:31.038Z,19.30
2017-10-21T15:19:58.922Z,19.20
2017-10-21T15:22:26.495Z,19.10
2017-10-21T15:24:53.935Z,19.00
2017-10-21T15:27:21.378Z,18.80
2017-10-21T15:29:48.819Z,18.70
2017-10-21T15:32:17.011Z,18.70
2017-10-21T15:34:44.464Z,18.70
2017-10-21T15:37:11.890Z,18.60
2017-10-21T15:39:40.127Z,18.40
2017-10-21T15:42:07.664Z,18.40
2017-10-21T15:44:35.089Z,18.30
2017-10-21T15:47:03.295Z,18.20
2017-10-21T15:49:30.731Z,18.20
2017-10-21T15:51:58.163Z,18.10
2017-10-21T15:54:26.382Z,17.90
2017-10-21T15:56:53.814Z,17.90
2017-10-21T15:59:21.253Z,17.80
2017-10-21T16:01:49.459Z,17.70
2017-10-21T16:04:16.911Z,17.60
2017-10-21T16:06:44.403Z,17.60
2017-10-21T16:09:11.941Z,17.50
2017-10-21T16:11:39.711Z,17.50
2017-10-21T16:14:07.166Z,17.40
2017-10-21T16:16:34.614Z,17.30
2017-10-21T16:19:02.884Z,17.30
2017-10-21T16:21:31.797Z,17.20
2017-10-21T16:23:59.238Z,17.20
2017-10-21T16:26:26.678Z,17.10
2017-10-21T16:28:54.155Z,16.90
2017-10-21T16:31:21.605Z,16.80
2017-10-21T16:33:49.063Z,16.80
2017-10-21T16:36:16.622Z,16.70
2017-10-21T16:38:44.191Z,16.60
2017-10-21T16:41:12.471Z,16.50
2017-10-21T16:43:40.015Z,16.40
2017-10-21T16:46:07.580Z,16.30
2017-10-21T16:48:35.091Z,16.30
2017-10-21T16:51:02.535Z,16.20
2017-10-21T16:53:30.038Z,16.20
2017-10-21T16:55:57.487Z,16.10
2017-10-21T16:58:24.957Z,16.00
2017-10-21T17:00:52.414Z,15.80
2017-10-21T17:03:19.968Z,15.60
2017-10-21T17:05:47.422Z,15.60
2017-10-21T17:08:14.866Z,15.60
2017-10-21T17:10:42.458Z,15.60
2017-10-21T17:13:09.897Z,15.60
2017-10-21T17:15:37.355Z,15.70
2017-10-21T17:18:04.898Z,15.60
2017-10-21T17:20:32.469Z,15.40
2017-10-21T17:23:00.019Z,15.30
2017-10-21T17:25:27.566Z,15.30
2017-10-21T17:27:55.028Z,15.20
2017-10-21T17:30:22.580Z,15.10
2017-10-21T17:32:50.023Z,15.10
2017-10-21T17:35:17.465Z,15.00
2017-10-21T17:37:45.759Z,15.00
2017-10-21T17:40:13.225Z,14.90
2017-10-21T17:42:40.671Z,15.10
2017-10-21T17:45:08.115Z,15.10
2017-10-21T17:47:35.554Z,15.00
2017-10-21T17:50:03.051Z,15.00
2017-10-21T17:52:30.507Z,14.90
2017-10-21T17:54:58.051Z,14.80
2017-10-21T17:57:25.495Z,14.80
2017-10-21T17:59:52.962Z,14.80
2017-10-21T18:02:20.423Z,14.60
2017-10-21T18:04:47.879Z,14.60
2017-10-21T18:07:15.423Z,14.60
2017-10-21T18:09:42.862Z,14.60
2017-10-21T18:12:10.325Z,14.60
2017-10-21T18:14:37.803Z,14.60
2017-10-21T18:17:05.248Z,14.50
2017-10-21T18:19:32.715Z,14.50
2017-10-21T18:22:01.025Z,14.50
2017-10-21T18:24:28.542Z,14.60
2017-10-21T18:26:56.410Z,14.60
2017-10-21T18:29:23.858Z,14.60
2017-10-21T18:31:51.500Z,14.40
2017-10-21T18:34:19.009Z,14.50
2017-10-21T18:36:46.539Z,14.50
2017-10-21T18:39:14.011Z,14.40
2017-10-21T18:41:42.022Z,14.50
2017-10-21T18:44:09.467Z,14.40
2017-10-21T18:46:36.923Z,14.40
2017-10-21T18:49:05.138Z,14.30
2017-10-21T18:51:32.576Z,14.30
2017-10-21T18:54:00.023Z,14.30
2017-10-21T18:56:27.487Z,14.30
2017-10-21T18:58:54.921Z,14.30
2017-10-21T19:01:22.371Z,14.20
2017-10-21T19:04:00.542Z,14.20
2017-10-21T19:06:27.978Z,14.20
2017-10-21T19:08:55.985Z,14.30
2017-10-21T19:11:24.198Z,14.30
2017-10-21T19:13:51.654Z,14.30
2017-10-21T19:16:19.130Z,14.30
2017-10-21T19:18:46.587Z,14.30
2017-10-21T19:21:14.030Z,14.30
2017-10-21T19:23:41.486Z,14.30
2017-10-21T19:26:08.944Z,14.30
2017-10-21T19:28:36.453Z,14.20
2017-10-21T19:31:04.678Z,14.10
2017-10-21T19:33:32.139Z,14.00
2017-10-21T19:35:59.594Z,14.00
2017-10-21T19:38:27.044Z,14.00
2017-10-21T19:40:54.498Z,14.00
2017-10-21T19:43:21.950Z,14.00
2017-10-21T19:45:49.398Z,14.00
2017-10-21T19:48:16.876Z,13.90
2017-10-21T19:50:44.359Z,13.80
2017-10-21T19:53:12.608Z,13.90
2017-10-21T19:55:40.063Z,13.80
2017-10-21T19:58:07.615Z,13.80
2017-10-21T20:00:35.179Z,13.80
2017-10-21T20:03:02.620Z,13.70
2017-10-21T20:05:30.827Z,13.70
2017-10-21T20:07:58.279Z,13.60
2017-10-21T20:10:25.756Z,13.60
2017-10-21T20:12:54.295Z,13.60
2017-10-21T20:15:21.753Z,13.50
2017-10-21T20:17:49.309Z,13.40
2017-10-21T20:20:16.768Z,13.40
2017-10-21T20:22:44.338Z,13.50
2017-10-21T20:25:11.877Z,13.50
2017-10-21T20:27:39.453Z,13.50
2017-10-21T20:30:07.052Z,13.50
2017-10-21T20:32:34.503Z,13.40
2017-10-21T20:35:01.967Z,13.30
2017-10-21T20:37:30.021Z,13.30
2017-10-21T20:39:57.488Z,13.40
2017-10-21T20:42:24.930Z,13.40
2017-10-21T20:44:53.147Z,13.30
2017-10-21T20:47:20.586Z,13.20
2017-10-21T20:49:48.026Z,13.20
2017-10-21T20:52:15.576Z,13.20
2017-10-21T20:54:43.802Z,13.10
2017-10-21T20:57:11.560Z,13.10
2017-10-21T20:59:38.998Z,13.20
2017-10-21T21:02:06.527Z,13.10
2017-10-21T21:04:33.984Z,13.10
2017-10-21T21:07:01.483Z,13.20
2017-10-21T21:09:28.940Z,13.30
2017-10-21T21:11:56.410Z,13.20
2017-10-21T21:14:23.846Z,13.30
2017-10-21T21:16:52.014Z,13.30
2017-10-21T21:19:19.468Z,13.30
2017-10-21T21:21:47.781Z,13.30
2017-10-21T21:24:16.035Z,13.40
2017-10-21T21:26:43.592Z,13.30
2017-10-21T21:29:11.043Z,13.40
2017-10-21T21:31:38.608Z,13.50
2017-10-21T21:34:06.241Z,13.50
2017-10-21T21:36:33.676Z,13.40
2017-10-21T21:39:01.119Z,13.50
2017-10-21T21:41:29.383Z,13.60
2017-10-21T21:43:57.625Z,13.70
2017-10-21T21:46:25.207Z,13.70
2017-10-21T21:48:52.732Z,13.80
2017-10-21T21:51:20.233Z,13.70
2017-10-21T21:53:48.418Z,13.60
2017-10-21T21:56:15.859Z,13.60
2017-10-21T21:58:44.059Z,13.60
2017-10-21T22:01:11.494Z,13.50
2017-10-21T22:03:39.687Z,13.40
2017-10-21T22:06:07.192Z,13.30
2017-10-21T22:08:35.403Z,13.30
2017-10-21T22:11:02.858Z,13.20
2017-10-21T22:13:30.363Z,13.20
2017-10-21T22:15:57.895Z,13.00
2017-10-21T22:18:25.826Z,13.00
2017-10-21T22:20:54.039Z,13.00
2017-10-21T22:23:21.483Z,12.90
2017-10-21T22:25:48.918Z,13.00
2017-10-21T22:28:16.415Z,13.00
2017-10-21T22:30:43.852Z,12.90
2017-10-21T22:33:11.287Z,12.90
2017-10-21T22:35:38.782Z,12.90
2017-10-21T22:38:06.253Z,13.00
2017-10-21T22:40:33.686Z,13.10
2017-10-21T22:43:01.142Z,13.00
2017-10-21T22:45:28.586Z,13.10
2017-10-21T22:47:56.030Z,13.00
2017-10-21T22:50:23.517Z,13.10
2017-10-21T22:52:50.972Z,13.00
2017-10-21T22:55:18.431Z,12.80
2017-10-21T22:57:45.879Z,12.80
2017-10-21T23:00:13.328Z,12.80
2017-10-21T23:05:36.243Z,12.70
2017-10-21T23:08:03.693Z,12.40
2017-10-21T23:10:31.158Z,12.40
2017-10-21T23:12:58.596Z,12.00
2017-10-21T23:15:26.062Z,11.80
2017-10-21T23:17:53.536Z,11.50
2017-10-21T23:20:21.778Z,11.50
2017-10-21T23:22:49.338Z,11.40
2017-10-21T23:25:16.896Z,11.60
2017-10-21T23:27:44.345Z,11.60
2017-10-21T23:30:11.911Z,11.50
2017-10-21T23:32:39.364Z,11.50
2017-10-21T23:35:06.814Z,11.40
2017-10-21T23:37:34.369Z,11.30
2017-10-21T23:40:01.801Z,11.30
2017-10-21T23:42:29.269Z,11.30
2017-10-21T23:44:56.706Z,11.30
2017-10-21T23:47:24.197Z,11.40
2017-10-21T23:49:51.634Z,11.40
2017-10-21T23:52:19.081Z,11.30
2017-10-21T23:54:46.558Z,11.20
2017-10-21T23:57:14.109Z,11.20
2017-10-21T23:59:41.570Z,11.10
